Latest Weather Observations for Maryborough

IDQ60801

Issued at 12:42 pm EST Monday 26 August 2019 (issued every 10 minutes, with the page automatically refreshed every 10 minutes)

About weather observations | Map of weather stations | Latest weather observations for QLD | Other Formats
Station Details ID: 040126 Name: MARYBOROUGH Lat: -25.51 Lon: 152.72 Height: 8.98 m
Data from the previous 72 hours. | See also: Recent months at Maryborough
Date/Time
EST
Temp
°C
App
Temp
°C
Dew
Point
°C
Rel
Hum
%
Delta-T
°C
Wind Press
QNH
hPa
Press
MSL
hPa
Rain since
9am
mm
Dir  Spd
km/h
Gust
km/h
Spd
kts
Gust
kts
26/12:30pm 25.9 24.7 9.7 36 8.9 SSW 6 11 3 6 1017.3 1017.2 0.0
26/12:00pm 25.6 23.9 9.8 37 8.7 S 9 13 5 7 1018.0 1017.9 0.0
26/11:30am 25.3 23.6 11.1 41 8.0 SSW 11 13 6 7 1018.5 1018.4 0.0
26/11:00am 24.3 23.2 11.9 45 7.0 SSW 9 17 5 9 1019.1 1019.0 0.0
26/10:30am 23.1 22.6 12.7 52 6.0 SSW 7 13 4 7 1019.5 1019.4 0.0
26/10:00am 22.3 22.0 12.8 55 5.4 NW 6 7 3 4 1019.9 1019.8 0.0
26/09:30am 21.0 20.8 13.7 63 4.2 WNW 7 11 4 6 1020.2 1020.1 0.0
26/09:00am 19.7 19.4 14.3 71 3.1 WSW 9 11 5 6 1020.4 1020.3 0.0
26/08:30am 17.2 16.8 13.1 77 2.3 WSW 7 11 4 6 1020.4 1020.3 0.0
26/08:00am 14.9 14.6 12.8 87 1.2 NNE 6 7 3 4 1020.4 1020.3 0.0
26/07:30am 12.5 12.8 12.3 99 0.1 NNE 2 6 1 3 1020.1 1020.0 0.0
26/07:00am 11.4 10.1 11.2 99 0.1 N 9 11 5 6 1019.7 1019.6 0.0
26/06:30am 7.7 7.0 7.1 96 0.3 CALM 0 0 0 0 1019.4 1019.3 0.0
26/06:26am 7.1 6.3 6.5 96 0.3 CALM 0 0 0 0 1019.3 1019.2 0.0
26/06:00am 7.2 6.4 6.6 96 0.3 CALM 0 0 0 0 1019.2 1019.1 0.0
26/05:34am 7.5 6.8 6.9 96 0.3 CALM 0 0 0 0 1018.9 1018.8 0.0
26/05:30am 7.2 6.4 6.5 95 0.3 CALM 0 0 0 0 1018.9 1018.8 0.0
26/05:00am 8.0 7.4 7.4 96 0.3 CALM 0 0 0 0 1018.5 1018.4 0.0
26/04:50am 7.7 7.0 7.0 95 0.3 CALM 0 0 0 0 1018.3 1018.2 0.0
26/04:30am 7.7 7.0 7.0 95 0.3 CALM 0 0 0 0 1018.2 1018.1 0.0
26/04:17am 7.8 7.1 7.1 95 0.3 CALM 0 0 0 0 1018.1 1018.0 0.0
26/04:00am 8.0 7.4 7.2 95 0.4 CALM 0 0 0 0 1018.0 1017.9 0.0
26/03:35am 7.9 7.2 7.1 95 0.4 CALM 0 7 0 4 1017.8 1017.7 0.0
26/03:30am 8.0 7.4 7.2 95 0.4 CALM 0 0 0 0 1017.8 1017.7 0.0
26/03:24am 8.1 7.5 7.3 95 0.4 CALM 0 0 0 0 1017.9 1017.8 0.0
26/03:10am 8.3 7.7 7.5 95 0.4 CALM 0 0 0 0 1018.0 1017.9 0.0
26/03:00am 8.3 7.7 7.4 94 0.4 CALM 0 0 0 0 1018.1 1018.0 0.0
26/02:34am 8.5 8.0 7.7 95 0.4 CALM 0 0 0 0 1018.2 1018.1 0.0
26/02:30am 8.6 8.1 7.8 95 0.4 CALM 0 0 0 0 1018.2 1018.1 0.0
26/02:00am 8.1 7.4 7.0 93 0.5 CALM 0 0 0 0 1018.3 1018.2 0.0
26/01:56am 7.9 7.2 6.8 93 0.5 CALM 0 0 0 0 1018.3 1018.2 0.0
26/01:35am 7.6 5.7 6.7 94 0.4 N 6 7 3 4 1018.5 1018.4 0.0
26/01:30am 8.9 8.1 8.1 95 0.4 N 2 7 1 4 1018.6 1018.5 0.0
26/01:18am 8.3 6.3 7.2 93 0.5 N 7 11 4 6 1018.7 1018.6 0.0
26/01:00am 8.8 8.3 7.7 93 0.5 CALM 0 0 0 0 1018.7 1018.6 0.0
26/12:37am 8.8 8.3 7.7 93 0.5 CALM 0 0 0 0 1018.9 1018.8 0.0
26/12:33am 9.0 8.5 7.9 93 0.5 CALM 0 0 0 0 1018.9 1018.8 0.0
26/12:30am 9.0 8.5 7.9 93 0.5 CALM 0 0 0 0 1018.9 1018.8 0.0
26/12:05am 9.1 8.6 8.0 93 0.5 CALM 0 0 0 0 1019.1 1019.0 0.0
26/12:00am 9.1 8.6 8.0 93 0.5 CALM 0 0 0 0 1019.2 1019.1 0.0
 
Date/Time
EST
Temp
°C
App
Temp
°C
Dew
Point
°C
Rel
Hum
%
Delta-T
°C
Wind Press
QNH
hPa
Press
MSL
hPa
Rain since
9am
mm
Dir  Spd
km/h
Gust
km/h
Spd
kts
Gust
kts
25/11:52pm 9.5 9.1 8.4 93 0.5 CALM 0 0 0 0 1019.2 1019.1 0.0
25/11:30pm 9.7 9.4 8.6 93 0.5 CALM 0 0 0 0 1019.3 1019.2 0.0
25/11:29pm 9.7 9.4 8.6 93 0.5 CALM 0 0 0 0 1019.3 1019.2 0.0
25/11:00pm 10.6 10.5 9.5 93 0.5 CALM 0 0 0 0 1019.4 1019.3 0.0
25/10:30pm 10.3 9.0 9.2 93 0.5 NNE 6 7 3 4 1019.5 1019.4 0.0
25/10:00pm 11.0 10.6 9.8 92 0.6 NNE 2 6 1 3 1019.3 1019.2 0.0
25/09:32pm 10.6 10.4 9.2 91 0.7 CALM 0 0 0 0 1019.3 1019.2 0.0
25/09:30pm 10.8 10.7 9.4 91 0.7 CALM 0 0 0 0 1019.3 1019.2 0.0
25/09:14pm 11.4 11.5 10.1 92 0.7 CALM 0 0 0 0 1019.4 1019.3 0.0
25/09:00pm 11.6 11.6 9.9 89 0.9 CALM 0 0 0 0 1019.4 1019.3 0.0
25/08:30pm 11.6 11.6 9.9 89 0.9 CALM 0 0 0 0 1019.4 1019.3 0.0
25/08:00pm 12.3 12.1 9.0 80 1.6 CALM 0 0 0 0 1019.1 1019.0 0.0
25/07:30pm 13.2 12.1 10.0 81 1.6 N 6 7 3 4 1018.9 1018.8 0.0
25/07:00pm 13.5 12.0 8.4 71 2.5 NNE 6 7 3 4 1018.7 1018.6 0.0
25/06:30pm 16.1 14.6 9.3 64 3.5 NNE 7 7 4 4 1018.4 1018.3 0.0
25/06:00pm 18.1 16.7 9.5 57 4.5 N 7 13 4 7 1018.2 1018.1 0.0
25/05:30pm 19.8 17.8 8.5 48 5.9 NNE 9 15 5 8 1017.7 1017.6 0.0
25/05:00pm 21.7 19.4 7.5 40 7.3 NE 9 15 5 8 1017.5 1017.4 0.0
25/04:30pm 22.8 19.5 6.6 35 8.3 NNE 13 20 7 11 1017.2 1017.1 0.0
25/04:00pm 23.9 20.7 5.3 30 9.4 NE 11 15 6 8 1017.0 1016.9 0.0
25/03:30pm 23.9 20.7 5.3 30 9.4 NE 11 19 6 10 1016.8 1016.7 0.0
25/03:00pm 24.3 21.3 6.1 31 9.3 NNE 11 19 6 10 1016.8 1016.7 0.0
25/02:30pm 24.3 22.5 7.0 33 9.0 SSW 6 9 3 5 1017.1 1017.0 0.0
25/02:00pm 24.4 22.3 5.7 30 9.5 WNW 6 15 3 8 1017.5 1017.4 0.0
25/01:30pm 24.1 21.8 5.5 30 9.4 ENE 7 17 4 9 1017.9 1017.8 0.0
25/01:00pm 23.9 21.5 7.1 34 8.7 ESE 9 15 5 8 1018.2 1018.1 0.0
25/12:30pm 24.1 21.5 7.7 35 8.6 ENE 11 19 6 10 1018.8 1018.7 0.0
25/12:00pm 23.1 20.9 6.4 34 8.5 WNW 7 15 4 8 1019.5 1019.4 0.0
25/11:30am 22.8 20.8 7.0 36 8.2 NW 7 13 4 7 1020.2 1020.1 0.0
25/11:00am 22.8 20.5 7.4 37 8.0 N 9 17 5 9 1020.7 1020.6 0.0
25/10:30am 21.4 18.9 8.3 43 6.9 WNW 11 19 6 10 1021.2 1021.1 0.0
25/10:00am 21.0 20.4 11.6 55 5.2 WNW 6 9 3 5 1021.5 1021.4 0.0
25/09:30am 19.1 18.5 12.4 65 3.7 SW 7 9 4 5 1021.8 1021.8 0.0
25/09:00am 17.4 16.6 11.7 69 3.1 SSW 7 13 4 7 1022.0 1022.0 0.0
25/08:30am 15.5 14.6 11.3 76 2.3 S 7 9 4 5 1022.0 1022.0 0.0
25/08:00am 13.5 12.6 11.2 86 1.2 SSE 7 9 4 5 1022.0 1022.0 0.0
25/07:30am 11.7 10.4 11.1 96 0.3 SSW 9 11 5 6 1021.9 1021.9 0.0
25/07:00am 9.1 8.0 8.6 97 0.2 WNW 4 7 2 4 1021.4 1021.3 0.0
25/06:30am 7.1 5.2 6.5 96 0.3 WNW 6 6 3 3 1021.0 1020.9 0.0
25/06:16am 7.4 6.7 7.0 97 0.2 CALM 0 0 0 0 1021.0 1020.9 0.0
25/06:00am 7.5 6.8 6.9 96 0.3 CALM 0 0 0 0 1020.9 1020.8 0.0
25/05:51am 7.1 6.3 6.5 96 0.3 CALM 0 0 0 0 1020.9 1020.8 0.0
25/05:39am 6.6 5.7 5.9 95 0.3 CALM 0 0 0 0 1020.8 1020.7 0.0
25/05:30am 6.7 5.8 6.0 95 0.3 CALM 0 0 0 0 1020.8 1020.7 0.0
25/05:00am 7.1 6.3 6.4 95 0.3 CALM 0 0 0 0 1020.7 1020.6 0.0
25/04:53am 7.0 6.2 6.3 95 0.3 CALM 0 0 0 0 1020.7 1020.6 0.0
25/04:30am 7.2 6.4 6.6 96 0.3 CALM 0 0 0 0 1020.7 1020.6 0.0
25/04:01am 7.2 6.4 6.5 95 0.3 CALM 0 0 0 0 1020.7 1020.6 0.0
25/04:00am 7.2 6.4 6.5 95 0.3 CALM 0 0 0 0 1020.7 1020.6 0.0
25/03:37am 7.7 6.6 7.1 96 0.3 WNW 2 6 1 3 1020.6 1020.5 0.0
25/03:30am 8.2 6.5 7.6 96 0.3 WNW 6 7 3 4 1020.6 1020.5 0.0
25/03:05am 7.4 6.6 6.7 95 0.3 CALM 0 0 0 0 1020.8 1020.7 0.0
25/03:00am 7.6 6.9 6.9 95 0.3 CALM 0 0 0 0 1020.7 1020.6 0.0
25/02:30am 8.9 8.5 8.3 96 0.3 CALM 0 0 0 0 1020.9 1020.8 0.0
25/02:09am 9.3 8.7 8.8 97 0.2 WNW 2 6 1 3 1021.0 1020.9 0.0
25/02:00am 9.6 8.3 9.1 97 0.2 WNW 6 7 3 4 1021.1 1021.0 0.0
25/01:30am 8.9 6.8 8.1 95 0.4 SSW 9 13 5 7 1021.3 1021.2 0.0
25/01:06am 9.9 8.7 9.4 97 0.2 NE 6 7 3 4 1021.5 1021.4 0.0
25/01:00am 10.4 9.3 9.9 97 0.3 NE 6 7 3 4 1021.7 1021.7 0.0
25/12:30am 10.0 8.8 9.5 97 0.2 NE 6 7 3 4 1021.8 1021.8 0.0
25/12:24am 10.1 8.9 9.6 97 0.2 NE 6 6 3 3 1021.8 1021.8 0.0
25/12:20am 10.3 9.2 9.8 97 0.3 NE 6 7 3 4 1021.8 1021.8 0.0
25/12:00am 10.0 9.5 9.5 97 0.2 NE 2 7 1 4 1022.0 1022.0 0.0
 
Date/Time
EST
Temp
°C
App
Temp
°C
Dew
Point
°C
Rel
Hum
%
Delta-T
°C
Wind Press
QNH
hPa
Press
MSL
hPa
Rain since
9am
mm
Dir  Spd
km/h
Gust
km/h
Spd
kts
Gust
kts
24/11:40pm 8.9 7.7 8.1 95 0.4 NE 4 6 2 3 1021.9 1021.9 0.0
24/11:34pm 9.6 8.6 8.8 95 0.4 NE 4 7 2 4 1021.9 1021.9 0.0
24/11:30pm 9.1 8.0 8.3 95 0.4 NE 4 7 2 4 1021.9 1021.9 0.0
24/11:05pm 9.3 9.0 8.5 95 0.4 CALM 0 0 0 0 1021.9 1021.9 0.0
24/11:00pm 9.5 9.2 8.7 95 0.4 CALM 0 0 0 0 1021.9 1021.9 0.0
24/10:47pm 9.7 9.4 8.8 94 0.4 CALM 0 0 0 0 1022.0 1022.0 0.0
24/10:31pm 9.3 8.9 8.4 94 0.4 CALM 0 0 0 0 1022.0 1022.0 0.0
24/10:30pm 9.4 9.1 8.5 94 0.4 CALM 0 0 0 0 1022.0 1022.0 0.0
24/10:00pm 9.1 8.6 7.9 92 0.6 CALM 0 0 0 0 1022.2 1022.2 0.0
24/09:41pm 9.8 9.5 8.7 93 0.5 CALM 0 0 0 0 1022.2 1022.2 0.0
24/09:30pm 10.1 9.9 9.0 93 0.5 CALM 0 0 0 0 1022.2 1022.2 0.0
24/09:21pm 10.2 10.0 9.0 92 0.6 CALM 0 0 0 0 1022.3 1022.3 0.0
24/09:00pm 10.5 10.4 9.3 92 0.6 CALM 0 0 0 0 1022.4 1022.4 0.0
24/08:30pm 11.1 11.0 9.5 90 0.8 CALM 0 0 0 0 1022.4 1022.4 0.0
24/08:00pm 11.3 11.2 9.6 89 0.9 CALM 0 0 0 0 1022.2 1022.2 0.0
24/07:30pm 11.9 11.9 9.8 87 1.1 CALM 0 2 0 1 1022.2 1022.2 0.0
24/07:00pm 12.4 11.6 9.6 83 1.4 NE 4 6 2 3 1022.2 1022.2 0.0
24/06:30pm 13.7 12.6 9.9 78 2.0 NE 6 7 3 4 1022.1 1022.1 0.0
24/06:00pm 15.0 14.0 10.2 73 2.5 NE 6 7 3 4 1021.9 1021.9 0.0
24/05:30pm 17.3 16.3 10.2 63 3.8 NE 6 9 3 5 1021.6 1021.6 0.0
24/05:00pm 19.3 18.1 10.3 56 4.8 NE 7 13 4 7 1021.4 1021.3 0.0
24/04:30pm 20.4 18.9 10.5 53 5.4 NE 9 13 5 7 1021.2 1021.1 0.0
24/04:00pm 21.1 19.4 10.0 49 6.0 ENE 9 19 5 10 1021.0 1020.9 0.0
24/03:30pm 20.3 18.5 9.5 50 5.8 ENE 9 17 5 9 1021.2 1021.1 0.0
24/03:00pm 21.3 19.4 10.5 50 5.9 E 11 17 6 9 1021.3 1021.2 0.0
24/02:30pm 20.6 18.3 10.4 52 5.5 ESE 13 19 7 10 1021.6 1021.6 0.0
24/02:00pm 20.1 18.0 11.1 56 4.9 E 13 20 7 11 1022.0 1022.0 0.0
24/01:30pm 19.4 18.2 11.7 61 4.2 E 9 15 5 8 1022.4 1022.4 0.0
24/01:00pm 17.7 16.7 13.4 76 2.4 NE 11 17 6 9 1022.9 1022.9 0.0
24/12:30pm 20.3 18.2 11.0 55 5.1 ESE 13 20 7 11 1023.0 1023.0 0.0
24/12:00pm 20.6 20.4 11.8 57 4.9 SE 4 9 2 5 1023.6 1023.6 0.0
24/11:30am 19.4 18.3 11.9 62 4.2 SSW 9 15 5 8 1024.2 1024.2 0.0
24/11:00am 17.8 16.9 11.4 66 3.5 W 7 11 4 6 1024.8 1024.8 0.0
24/10:59am 18.0 17.2 11.8 67 3.4 W 7 11 4 6 1024.8 1024.8 0.0
24/10:30am 17.2 16.5 12.1 72 2.8 SSW 7 13 4 7 1025.3 1025.3 0.0
24/10:00am 16.3 16.5 11.7 74 2.5 SSW 2 6 1 3 1025.8 1025.8 0.0
24/09:47am 16.0 15.4 11.6 75 2.4 SSW 6 9 3 5 1025.9 1025.9 0.0
24/09:32am 15.7 15.1 12.3 80 1.9 SSW 7 11 4 6 1025.7 1025.7 0.0
24/09:30am 15.7 15.2 12.5 81 1.8 SSW 7 11 4 6 1025.7 1025.7 0.0
24/09:00am 14.9 13.6 12.6 86 1.3 SSW 11 15 6 8 1025.6 1025.6 0.0
24/08:30am 15.0 12.7 11.6 80 1.8 S 15 22 8 12 1025.4 1025.4 0.0
24/08:00am 13.7 11.0 10.3 80 1.8 S 15 22 8 12 1025.5 1025.5 0.0
24/07:30am 13.4 11.9 10.4 82 1.6 SSE 9 13 5 7 1025.1 1025.1 0.0
24/07:00am 13.3 11.8 10.5 83 1.4 S 9 13 5 7 1024.7 1024.7 0.0
24/06:58am 13.2 11.3 10.4 83 1.5 S 11 13 6 7 1024.7 1024.7 0.0
24/06:55am 13.1 11.1 10.3 83 1.4 SSW 11 13 6 7 1024.6 1024.6 0.0
24/06:30am 12.9 11.3 10.1 83 1.4 SSW 9 13 5 7 1024.4 1024.4 0.0
24/06:19am 13.0 11.4 10.2 83 1.4 SSW 9 11 5 6 1024.2 1024.2 0.0
24/06:00am 12.9 11.7 10.3 84 1.3 SW 7 13 4 7 1024.0 1024.0 0.0
24/05:30am 12.3 10.2 9.9 85 1.2 SW 11 13 6 7 1023.6 1023.6 0.0
24/05:00am 12.1 10.8 10.0 87 1.1 SW 7 13 4 7 1023.5 1023.5 0.0
24/04:42am 12.0 11.0 10.2 89 0.9 SW 6 9 3 5 1023.4 1023.4 0.0
24/04:30am 11.8 10.1 10.0 89 0.9 SW 9 11 5 6 1023.3 1023.3 0.0
24/04:00am 11.0 9.3 9.9 93 0.6 ESE 9 11 5 6 1023.3 1023.3 0.0
24/03:30am 9.5 7.8 8.4 93 0.5 ESE 7 9 4 5 1023.3 1023.3 0.0
24/03:00am 9.5 7.8 8.3 92 0.6 ESE 7 9 4 5 1023.3 1023.3 0.0
24/02:30am 10.2 8.9 9.3 94 0.4 ESE 6 7 3 4 1023.5 1023.5 0.0
24/02:00am 9.8 8.4 8.7 93 0.5 ESE 6 7 3 4 1023.6 1023.6 0.0
24/01:30am 10.1 10.0 9.3 95 0.4 CALM 0 0 0 0 1023.7 1023.7 0.0
24/01:00am 9.5 8.0 8.6 94 0.4 ESE 6 7 3 4 1023.9 1023.9 0.0
24/12:30am 9.1 8.6 7.9 92 0.6 CALM 0 4 0 2 1024.1 1024.1 0.0
24/12:00am 9.2 7.9 7.6 90 0.8 ESE 4 7 2 4 1024.3 1024.3 0.0
 
Date/Time
EST
Temp
°C
App
Temp
°C
Dew
Point
°C
Rel
Hum
%
Delta-T
°C
Wind Press
QNH
hPa
Press
MSL
hPa
Rain since
9am
mm
Dir  Spd
km/h
Gust
km/h
Spd
kts
Gust
kts
23/11:30pm 10.3 10.1 9.2 93 0.5 CALM 0 0 0 0 1024.4 1024.4 0.0
23/11:02pm 9.9 8.2 8.3 90 0.8 ESE 7 7 4 4 1024.6 1024.6 0.0
23/11:00pm 9.9 8.4 8.5 91 0.7 ESE 6 7 3 4 1024.6 1024.6 0.0
23/10:30pm 9.7 8.5 8.1 90 0.8 ESE 4 6 2 3 1024.7 1024.7 0.0
23/10:00pm 10.2 9.1 8.5 89 0.8 ESE 4 6 2 3 1024.9 1024.9 0.0
23/09:30pm 10.4 8.9 8.5 88 0.9 ESE 6 6 3 3 1024.9 1024.9 0.0
23/09:00pm 10.0 8.3 7.4 84 1.2 ESE 6 6 3 3 1024.8 1024.8 0.0
23/08:30pm 10.9 9.4 8.3 84 1.3 ESE 6 7 3 4 1024.9 1024.9 0.0
23/08:00pm 10.8 10.3 7.7 81 1.5 CALM 0 6 0 3 1024.7 1024.7 0.0
23/07:30pm 11.7 11.3 8.2 79 1.7 CALM 0 0 0 0 1024.6 1024.6 0.0
23/07:00pm 13.3 11.5 7.3 67 2.9 ESE 6 7 3 4 1024.4 1024.4 0.0
23/06:30pm 15.3 12.9 8.8 65 3.3 ESE 11 13 6 7 1024.2 1024.2 0.0
23/06:00pm 16.5 13.7 8.7 60 4.0 ESE 13 17 7 9 1023.9 1023.9 0.0
23/05:30pm 17.5 14.2 9.7 60 4.1 ESE 17 26 9 14 1023.6 1023.6 0.0
23/05:00pm 18.5 14.7 9.0 54 4.9 ESE 19 26 10 14 1023.3 1023.3 0.0
23/04:30pm 19.6 15.2 8.9 50 5.6 ESE 22 32 12 17 1023.1 1023.1 0.0
23/04:00pm 20.1 15.7 9.1 49 5.8 SE 22 30 12 16 1022.7 1022.7 0.0
23/03:30pm 20.3 15.5 8.9 48 6.0 SE 24 35 13 19 1022.4 1022.4 0.0
23/03:00pm 20.5 15.2 6.8 41 6.9 SE 24 33 13 18 1022.3 1022.3 0.0
23/02:30pm 20.7 15.0 6.6 40 7.1 SE 26 37 14 20 1022.1 1022.1 0.0
23/02:00pm 21.3 16.5 8.9 45 6.5 SE 24 35 13 19 1022.1 1022.1 0.0
23/01:30pm 20.8 15.7 9.1 47 6.2 SSE 26 35 14 19 1022.3 1022.3 0.0
23/01:00pm 21.5 16.1 9.4 46 6.5 SSE 28 35 15 19 1022.5 1022.5 0.0

Other formats

Comma delimited format used in spreadsheet applications
http://www.bom.gov.au/fwo/IDQ60801/IDQ60801.94567.axf

JavaScript Object Notation format (JSON) in row-major order
http://www.bom.gov.au/fwo/IDQ60801/IDQ60801.94567.json

Data quality

Most of these data are generated automatically and are frequently updated. Quality checks on data are not normally performed. It is possible for incorrect values to appear. Refer to information at About Latest Weather Observations and please check the disclaimer before using these data.